RJBB/KIX METAR and TAF weather

Enter ICAO airport designator
Station Type Date Time Source
RJBB METAR 2020/04/02 02:30 UTC NOAA

RJBB 020230Z 31016KT 9999 FEW020 BKN040 13/05 Q1016 NOSIG


Station Type Date Time Source
RJBB Decoded METAR 2020/04/02 02:30 UTC NOAA

Kansai International Airport, Japan (RJBB) 34-25N 135-15E 8M
Apr 01, 2020 - 10:30 PM EDT / 2020.04.02 0230 UTC
Wind: from the NW (310 degrees) at 18 MPH (16 KT):0
Visibility: greater than 7 mile(s):0
Sky conditions: mostly cloudy
Temperature: 55 F (13 C)
Dew Point: 41 F (5 C)
Relative Humidity: 58%
Pressure (altimeter): 30.00 in. Hg (1016 hPa)
ob: RJBB 020230Z 31016KT 9999 FEW020 BKN040 13/05 Q1016 NOSIG
cycle: 2

Station Type Date Time Source
RJBB TAF 2020/04/01 18:09 UTC NOAA

TAF RJBB 011707Z 0118/0300 30013KT 9999 FEW020 SCT040
BECMG 0203/0205 34016KT
BECMG 0212/0215 08006KT
BECMG 0221/0300 20004KT

Example: see airport list